createdAt,value
2022-10-11T00:00:20.984Z,5.70
2022-10-11T00:03:08.644Z,5.70
2022-10-11T00:05:36.350Z,5.40
2022-10-11T00:08:05.697Z,4.70
2022-10-11T00:10:33.989Z,5.20
2022-10-11T00:13:01.659Z,5.50
2022-10-11T00:15:29.287Z,5.80
2022-10-11T00:17:56.875Z,5.30
2022-10-11T00:20:24.496Z,5.60
2022-10-11T00:22:57.649Z,4.80
2022-10-11T00:25:25.306Z,5.60
2022-10-11T00:27:52.939Z,4.50
2022-10-11T00:30:20.548Z,5.20
2022-10-11T00:32:48.080Z,5.20
2022-10-11T00:35:15.704Z,4.80
2022-10-11T00:37:43.316Z,5.90
2022-10-11T00:40:14.497Z,5.30
2022-10-11T00:42:42.081Z,5.30
2022-10-11T00:45:28.283Z,4.70
2022-10-11T00:48:07.557Z,6.00
2022-10-11T00:50:35.848Z,4.80
2022-10-11T00:53:08.059Z,5.00
2022-10-11T00:55:39.054Z,5.10
2022-10-11T00:58:06.766Z,5.20
2022-10-11T01:00:34.424Z,5.30
2022-10-11T01:03:02.702Z,5.00
2022-10-11T01:05:31.226Z,5.20
2022-10-11T01:08:00.298Z,5.60
2022-10-11T01:10:28.467Z,5.20
2022-10-11T01:13:14.956Z,5.80
2022-10-11T01:15:45.720Z,4.40
2022-10-11T01:18:16.487Z,5.00
2022-10-11T01:20:53.247Z,5.20
2022-10-11T01:23:23.582Z,6.00
2022-10-11T01:26:00.407Z,5.10
2022-10-11T01:28:28.058Z,5.00
2022-10-11T01:30:58.353Z,5.40
2022-10-11T01:33:40.059Z,4.90
2022-10-11T01:36:30.007Z,5.50
2022-10-11T01:38:59.916Z,4.40
2022-10-11T01:41:47.680Z,5.30
2022-10-11T01:44:15.754Z,5.30
2022-10-11T01:46:43.308Z,5.70
2022-10-11T01:49:11.072Z,5.20
2022-10-11T01:51:47.130Z,5.20
2022-10-11T01:54:24.364Z,5.60
2022-10-11T01:56:57.918Z,5.70
2022-10-11T01:59:31.503Z,5.70
2022-10-11T02:01:59.016Z,4.90
2022-10-11T02:04:33.189Z,5.00
2022-10-11T02:07:07.631Z,5.70
2022-10-11T02:09:47.361Z,5.80
2022-10-11T02:12:18.565Z,4.40
2022-10-11T02:14:48.933Z,5.80
2022-10-11T02:17:18.584Z,5.80
2022-10-11T02:19:49.529Z,5.40
2022-10-11T02:22:23.633Z,5.00
2022-10-11T02:24:53.492Z,5.90
2022-10-11T02:27:23.574Z,5.10
2022-10-11T02:29:52.721Z,5.50
2022-10-11T02:32:21.975Z,5.70
2022-10-11T02:34:52.806Z,5.50
2022-10-11T02:37:38.710Z,5.60
2022-10-11T02:40:25.006Z,6.10
2022-10-11T02:42:58.826Z,6.00
2022-10-11T02:45:37.580Z,5.80
2022-10-11T02:48:06.659Z,5.60
2022-10-11T02:50:34.305Z,6.30
2022-10-11T02:53:01.906Z,4.90
2022-10-11T02:55:29.462Z,5.30
2022-10-11T02:57:57.244Z,5.70
2022-10-11T03:00:24.859Z,5.70
2022-10-11T03:02:52.462Z,5.40
2022-10-11T03:05:20.026Z,5.60
2022-10-11T03:07:47.571Z,6.40
2022-10-11T03:10:15.180Z,5.70
2022-10-11T03:12:42.719Z,5.60
2022-10-11T03:15:10.541Z,5.80
2022-10-11T03:17:38.250Z,5.30
2022-10-11T03:20:06.615Z,5.00
2022-10-11T03:22:34.255Z,5.50
2022-10-11T03:25:04.305Z,5.70
2022-10-11T03:27:32.951Z,5.70
2022-10-11T03:30:00.940Z,6.10
2022-10-11T03:32:28.705Z,6.20
2022-10-11T03:34:56.966Z,5.20
2022-10-11T03:37:25.460Z,5.40
2022-10-11T03:39:53.257Z,5.90
2022-10-11T03:42:20.817Z,5.10
2022-10-11T03:44:49.953Z,5.10
2022-10-11T03:47:17.741Z,6.00
2022-10-11T03:49:45.296Z,5.90
2022-10-11T03:52:12.920Z,5.70
2022-10-11T03:54:40.509Z,7.30
2022-10-11T03:57:08.031Z,7.00
2022-10-11T03:59:35.571Z,6.60
2022-10-11T04:02:03.906Z,7.10
2022-10-11T04:04:31.741Z,6.30
2022-10-11T04:06:59.305Z,5.80
2022-10-11T04:09:26.845Z,5.70
2022-10-11T04:11:54.579Z,6.30
2022-10-11T04:14:22.155Z,7.50
2022-10-11T04:16:49.795Z,9.60
2022-10-11T04:19:17.356Z,16.40
2022-10-11T04:21:44.945Z,13.30
2022-10-11T04:24:12.537Z,11.00
2022-10-11T04:26:40.220Z,9.00
2022-10-11T04:29:07.738Z,7.00
2022-10-11T04:31:35.287Z,8.40
2022-10-11T04:34:02.919Z,7.30
2022-10-11T04:36:32.977Z,7.60
2022-10-11T04:39:01.731Z,6.70
2022-10-11T04:41:30.050Z,6.40
2022-10-11T04:43:57.598Z,6.70
2022-10-11T04:46:25.641Z,6.20
2022-10-11T04:48:53.198Z,5.30
2022-10-11T04:51:21.102Z,6.80
2022-10-11T04:53:49.015Z,6.70
2022-10-11T04:56:18.543Z,7.40
2022-10-11T04:58:49.436Z,7.10
2022-10-11T05:01:17.042Z,6.60
2022-10-11T05:03:44.633Z,7.30
2022-10-11T05:06:12.719Z,6.00
2022-10-11T05:08:40.749Z,7.00
2022-10-11T05:11:11.226Z,7.00
2022-10-11T05:13:38.890Z,7.60
2022-10-11T05:16:10.691Z,8.20
2022-10-11T05:18:39.308Z,11.00
2022-10-11T05:21:09.127Z,10.20
2022-10-11T05:23:37.293Z,9.30
2022-10-11T05:26:05.396Z,8.50
2022-10-11T05:28:33.497Z,8.00
2022-10-11T05:31:01.686Z,7.70
2022-10-11T05:33:29.301Z,8.20
2022-10-11T05:35:56.854Z,8.20
2022-10-11T05:38:24.468Z,8.50
2022-10-11T05:40:52.268Z,7.30
2022-10-11T05:43:19.902Z,7.20
2022-10-11T05:45:47.505Z,8.10
2022-10-11T05:48:15.630Z,7.90
2022-10-11T05:50:43.431Z,8.30
2022-10-11T05:53:11.034Z,8.30
2022-10-11T05:55:42.453Z,7.30
2022-10-11T05:58:14.341Z,8.40
2022-10-11T06:00:41.960Z,7.00
2022-10-11T06:03:11.409Z,7.50
2022-10-11T06:05:39.294Z,8.30
2022-10-11T06:08:08.737Z,8.40
2022-10-11T06:10:37.082Z,8.20
2022-10-11T06:13:05.049Z,8.30
2022-10-11T06:15:32.865Z,8.70
2022-10-11T06:18:00.507Z,8.00
2022-10-11T06:20:28.124Z,7.70
2022-10-11T06:22:55.727Z,8.10
2022-10-11T06:25:23.296Z,8.80
2022-10-11T06:27:50.825Z,8.40
2022-10-11T06:30:18.731Z,7.90
2022-10-11T06:32:46.364Z,8.50
2022-10-11T06:35:13.952Z,7.70
2022-10-11T06:37:41.497Z,8.30
2022-10-11T06:40:09.275Z,8.60
2022-10-11T06:42:36.826Z,8.90
2022-10-11T06:45:04.650Z,8.40
2022-10-11T06:47:32.529Z,8.50
2022-10-11T06:50:00.314Z,8.00
2022-10-11T06:52:27.920Z,7.50
2022-10-11T06:54:55.511Z,8.00
2022-10-11T06:57:23.188Z,8.70
2022-10-11T06:59:51.103Z,8.40
2022-10-11T07:02:18.718Z,8.10
2022-10-11T07:04:46.301Z,7.50
2022-10-11T07:07:14.443Z,8.00
2022-10-11T07:09:42.134Z,7.40
2022-10-11T07:12:09.775Z,7.80
2022-10-11T07:14:37.944Z,8.40
2022-10-11T07:17:05.758Z,8.30
2022-10-11T07:19:33.524Z,7.20
2022-10-11T07:22:01.093Z,7.20
2022-10-11T07:24:28.719Z,7.10
2022-10-11T07:26:56.302Z,7.20
2022-10-11T07:29:23.913Z,6.80
2022-10-11T07:31:51.479Z,7.40
2022-10-11T07:34:20.834Z,7.10
2022-10-11T07:36:48.520Z,7.20
2022-10-11T07:39:16.158Z,7.40
2022-10-11T07:41:46.085Z,7.00
2022-10-11T07:44:14.553Z,7.00
2022-10-11T07:46:42.248Z,6.80
2022-10-11T07:49:09.901Z,7.10
2022-10-11T07:51:37.485Z,7.00
2022-10-11T07:54:07.392Z,7.40
2022-10-11T07:56:36.793Z,6.80
2022-10-11T07:59:04.474Z,6.80
2022-10-11T08:01:32.552Z,6.60
2022-10-11T08:04:00.314Z,7.40
2022-10-11T08:06:30.755Z,7.60
2022-10-11T08:09:00.282Z,7.80
2022-10-11T08:11:32.812Z,7.90
2022-10-11T08:14:00.830Z,7.50
2022-10-11T08:16:28.477Z,7.90
2022-10-11T08:18:57.222Z,8.10
2022-10-11T08:21:26.427Z,7.40
2022-10-11T08:23:54.017Z,8.90
2022-10-11T08:26:21.998Z,8.40
2022-10-11T08:28:49.796Z,9.20
2022-10-11T08:31:17.416Z,8.90
2022-10-11T08:33:45.091Z,8.90
2022-10-11T08:36:13.147Z,9.50
2022-10-11T08:38:41.132Z,8.60
2022-10-11T08:41:35.143Z,8.10
2022-10-11T08:44:18.126Z,8.60
2022-10-11T08:49:13.558Z,8.20
2022-10-11T08:51:47.138Z,8.90
2022-10-11T08:54:17.929Z,8.80
2022-10-11T08:56:46.048Z,7.80
2022-10-11T08:59:13.590Z,7.90
2022-10-11T09:01:49.955Z,7.60
2022-10-11T09:04:18.004Z,7.50
2022-10-11T09:07:00.228Z,6.70
2022-10-11T09:09:31.429Z,6.70
2022-10-11T09:12:05.590Z,6.70
2022-10-11T09:14:52.057Z,6.50
2022-10-11T09:17:25.659Z,6.10
2022-10-11T09:20:13.538Z,6.10
2022-10-11T09:22:56.397Z,5.90
2022-10-11T09:25:24.272Z,5.60
2022-10-11T09:28:02.914Z,5.20
2022-10-11T09:30:31.876Z,5.70
2022-10-11T09:33:10.555Z,5.40
2022-10-11T09:35:49.043Z,5.10
2022-10-11T09:38:19.428Z,4.80
2022-10-11T09:40:52.994Z,4.70
2022-10-11T09:43:20.591Z,4.50
2022-10-11T09:45:49.691Z,4.00
2022-10-11T09:48:19.974Z,4.50
2022-10-11T09:50:47.890Z,4.70
2022-10-11T09:53:15.408Z,4.20
2022-10-11T09:55:43.767Z,4.40
2022-10-11T09:58:26.476Z,4.60
2022-10-11T10:03:27.552Z,3.90
2022-10-11T10:06:05.482Z,4.30
2022-10-11T10:08:33.673Z,4.60
2022-10-11T10:11:03.651Z,4.20
2022-10-11T10:13:40.464Z,4.70
2022-10-11T10:16:11.926Z,4.50
2022-10-11T10:18:44.074Z,4.40
2022-10-11T10:21:14.334Z,4.30
2022-10-11T10:23:42.190Z,4.30
2022-10-11T10:26:12.357Z,4.60
2022-10-11T10:28:55.052Z,4.70
2022-10-11T10:31:23.904Z,4.60
2022-10-11T10:33:53.384Z,4.20
2022-10-11T10:36:24.850Z,3.90
2022-10-11T10:38:59.303Z,4.30
2022-10-11T10:41:26.898Z,4.10
2022-10-11T10:43:58.161Z,4.10
2022-10-11T10:46:28.617Z,4.20
2022-10-11T10:49:52.499Z,3.70
2022-10-11T10:52:22.329Z,3.20
2022-10-11T10:55:01.810Z,3.20
2022-10-11T10:57:33.614Z,3.10
2022-10-11T11:00:01.181Z,3.20
2022-10-11T11:02:40.067Z,3.10
2022-10-11T11:05:40.790Z,3.00
2022-10-11T11:08:26.886Z,3.30
2022-10-11T11:10:57.728Z,3.70
2022-10-11T11:13:25.299Z,3.10
2022-10-11T11:15:58.546Z,3.20
2022-10-11T11:18:34.443Z,3.00
2022-10-11T11:21:22.273Z,3.10
2022-10-11T11:23:49.816Z,1.90
2022-10-11T11:26:17.322Z,2.20
2022-10-11T11:28:53.245Z,2.20
2022-10-11T11:31:47.193Z,1.60
2022-10-11T11:34:33.323Z,1.80
2022-10-11T11:37:06.800Z,1.70
2022-10-11T11:39:37.193Z,1.60
2022-10-11T11:42:07.203Z,1.30
2022-10-11T11:44:37.982Z,1.80
2022-10-11T11:47:10.728Z,1.80
2022-10-11T11:49:41.653Z,1.70
2022-10-11T11:52:13.025Z,1.50
2022-10-11T11:54:44.559Z,1.50
2022-10-11T11:57:23.968Z,1.60
2022-10-11T11:59:57.662Z,1.60
2022-10-11T12:02:37.361Z,1.50
2022-10-11T12:05:09.201Z,1.70
2022-10-11T12:07:51.855Z,1.70
2022-10-11T12:10:39.972Z,1.40
2022-10-11T12:13:19.876Z,1.40
2022-10-11T12:16:06.235Z,1.40
2022-10-11T12:18:37.133Z,1.40
2022-10-11T12:21:08.487Z,1.60
2022-10-11T12:23:41.384Z,1.40
2022-10-11T12:26:27.599Z,1.30
2022-10-11T12:29:01.702Z,1.40
2022-10-11T12:31:33.873Z,1.30
2022-10-11T12:34:01.468Z,1.00
2022-10-11T12:36:32.198Z,1.50
2022-10-11T12:39:18.783Z,0.90
2022-10-11T12:41:50.428Z,1.30
2022-10-11T12:44:28.259Z,1.20
2022-10-11T12:46:55.873Z,0.90
2022-10-11T12:49:23.598Z,1.10
2022-10-11T12:51:58.876Z,1.00
2022-10-11T12:54:36.837Z,0.80
2022-10-11T12:57:23.337Z,0.90
2022-10-11T12:59:51.106Z,1.00
2022-10-11T13:02:48.432Z,1.40
2022-10-11T13:05:27.541Z,1.20
2022-10-11T13:07:57.604Z,1.10
2022-10-11T13:10:35.295Z,0.90
2022-10-11T13:13:06.803Z,1.40
2022-10-11T13:15:34.520Z,1.00
2022-10-11T13:18:02.248Z,1.10
2022-10-11T13:20:31.383Z,1.10
2022-10-11T13:22:59.040Z,1.00
2022-10-11T13:25:27.729Z,1.00
2022-10-11T13:27:57.530Z,1.20
2022-10-11T13:30:33.365Z,1.30
2022-10-11T13:33:01.717Z,1.00
2022-10-11T13:35:33.729Z,1.40
2022-10-11T13:38:02.561Z,1.10
2022-10-11T13:40:30.852Z,1.10
2022-10-11T13:42:58.613Z,1.10
2022-10-11T13:45:27.424Z,1.00
2022-10-11T13:47:55.193Z,1.40
2022-10-11T13:50:24.049Z,1.10
2022-10-11T13:53:00.935Z,1.00
2022-10-11T13:55:30.400Z,1.40
2022-10-11T13:57:59.660Z,1.20
2022-10-11T14:00:37.336Z,0.90
2022-10-11T14:03:16.915Z,0.80
2022-10-11T14:05:52.422Z,1.00
2022-10-11T14:08:26.071Z,1.20
2022-10-11T14:10:57.248Z,1.10
2022-10-11T14:13:37.609Z,1.10
2022-10-11T14:16:11.374Z,1.20
2022-10-11T14:19:01.781Z,1.10
2022-10-11T14:21:34.755Z,1.50
2022-10-11T14:24:05.135Z,1.30
2022-10-11T14:26:36.885Z,1.20
2022-10-11T14:29:09.409Z,1.20
2022-10-11T14:31:41.513Z,1.40
2022-10-11T14:36:37.178Z,1.30
2022-10-11T14:39:06.360Z,1.30
2022-10-11T14:41:33.938Z,1.30
2022-10-11T14:44:01.533Z,1.10
2022-10-11T14:46:30.191Z,1.30
2022-10-11T14:48:57.962Z,1.30
2022-10-11T14:51:27.817Z,1.40
2022-10-11T14:53:55.540Z,1.60
2022-10-11T14:56:23.249Z,1.30
2022-10-11T14:58:51.516Z,1.20
2022-10-11T15:01:19.099Z,1.30
2022-10-11T15:03:46.744Z,1.30
2022-10-11T15:06:18.714Z,1.70
2022-10-11T15:08:46.278Z,1.90
2022-10-11T15:11:15.575Z,1.70
2022-10-11T15:13:43.198Z,1.50
2022-10-11T15:16:11.956Z,1.40
2022-10-11T15:18:40.038Z,1.60
2022-10-11T15:21:07.918Z,1.30
2022-10-11T15:23:35.513Z,1.20
2022-10-11T15:26:03.328Z,1.20
2022-10-11T15:28:32.051Z,1.20
2022-10-11T15:31:00.654Z,1.10
2022-10-11T15:33:28.318Z,1.50
2022-10-11T15:35:55.906Z,1.70
2022-10-11T15:38:24.237Z,2.00
2022-10-11T15:40:52.205Z,2.20
2022-10-11T15:43:24.496Z,2.10
2022-10-11T15:45:54.266Z,2.00
2022-10-11T15:48:23.101Z,1.80
2022-10-11T15:50:50.755Z,2.60
2022-10-11T15:53:19.649Z,2.50
2022-10-11T15:55:49.750Z,3.40
2022-10-11T15:58:18.576Z,3.50
2022-10-11T16:00:47.233Z,2.60
2022-10-11T16:03:16.236Z,3.00
2022-10-11T16:05:44.232Z,2.60
2022-10-11T16:08:12.125Z,2.60
2022-10-11T16:10:40.103Z,2.80
2022-10-11T16:13:08.475Z,2.30
2022-10-11T16:15:38.701Z,3.10
2022-10-11T16:18:06.598Z,3.30
2022-10-11T16:20:37.033Z,3.20
2022-10-11T16:23:04.681Z,3.60
2022-10-11T16:25:32.249Z,3.30
2022-10-11T16:28:00.006Z,2.70
2022-10-11T16:30:27.679Z,2.90
2022-10-11T16:32:55.656Z,2.40
2022-10-11T16:35:23.564Z,3.20
2022-10-11T16:37:51.115Z,3.00
2022-10-11T16:40:20.551Z,2.90
2022-10-11T16:42:48.494Z,2.40
2022-10-11T16:45:16.458Z,2.70
2022-10-11T16:47:44.057Z,2.90
2022-10-11T16:50:12.335Z,3.10
2022-10-11T16:52:39.918Z,3.70
2022-10-11T16:55:07.652Z,3.00
2022-10-11T16:57:35.284Z,4.00
2022-10-11T17:00:03.016Z,5.40
2022-10-11T17:02:32.601Z,9.70
2022-10-11T17:05:00.407Z,10.90
2022-10-11T17:07:28.373Z,13.40
2022-10-11T17:09:56.180Z,12.30
2022-10-11T17:12:24.123Z,12.50
2022-10-11T17:14:51.848Z,8.30
2022-10-11T17:17:19.982Z,10.50
2022-10-11T17:19:48.059Z,6.40
2022-10-11T17:22:17.345Z,5.00
2022-10-11T17:24:45.798Z,6.80
2022-10-11T17:27:13.501Z,8.70
2022-10-11T17:29:41.189Z,10.60
2022-10-11T17:32:08.980Z,8.90
2022-10-11T17:34:36.574Z,10.20
2022-10-11T17:37:04.220Z,11.60
2022-10-11T17:39:32.136Z,12.30
2022-10-11T17:42:05.062Z,10.90
2022-10-11T17:47:00.402Z,11.50
2022-10-11T17:49:28.047Z,9.90
2022-10-11T17:51:56.652Z,9.00
2022-10-11T17:54:24.902Z,10.80
2022-10-11T17:56:52.536Z,9.80
2022-10-11T17:59:27.330Z,10.40
2022-10-11T18:01:54.906Z,10.00
2022-10-11T18:04:22.601Z,9.60
2022-10-11T18:06:50.239Z,9.50
2022-10-11T18:09:18.649Z,8.30
2022-10-11T18:11:46.898Z,9.10
2022-10-11T18:14:15.023Z,9.10
2022-10-11T18:16:42.867Z,8.90
2022-10-11T18:19:12.488Z,11.40
2022-10-11T18:21:40.207Z,10.90
2022-10-11T18:24:17.250Z,9.50
2022-10-11T18:26:45.443Z,10.40
2022-10-11T18:29:13.561Z,9.40
2022-10-11T18:31:41.768Z,9.30
2022-10-11T18:34:10.898Z,8.80
2022-10-11T18:36:38.874Z,9.30
2022-10-11T18:39:07.547Z,10.10
2022-10-11T18:41:35.787Z,9.80
2022-10-11T18:44:05.038Z,9.80
2022-10-11T18:46:32.761Z,8.70
2022-10-11T18:49:02.103Z,8.60
2022-10-11T18:51:31.578Z,12.00
2022-10-11T18:53:59.775Z,21.30
2022-10-11T18:56:28.226Z,17.90
2022-10-11T18:58:56.447Z,15.80
2022-10-11T19:01:28.750Z,14.60
2022-10-11T19:03:57.716Z,10.40
2022-10-11T19:06:26.922Z,11.70
2022-10-11T19:08:56.037Z,11.80
2022-10-11T19:11:25.360Z,12.90
2022-10-11T19:13:57.308Z,14.10
2022-10-11T19:16:25.746Z,18.20
2022-10-11T19:18:53.642Z,18.30
2022-10-11T19:21:21.754Z,19.20
2022-10-11T19:23:49.913Z,17.00
2022-10-11T19:26:21.968Z,16.20
2022-10-11T19:28:54.334Z,17.30
2022-10-11T19:31:22.027Z,18.20
2022-10-11T19:33:49.710Z,22.50
2022-10-11T19:36:17.573Z,22.10
2022-10-11T19:38:46.800Z,22.90
2022-10-11T19:41:15.112Z,17.20
2022-10-11T19:43:43.328Z,12.80
2022-10-11T19:46:20.214Z,13.40
2022-10-11T19:48:51.679Z,11.30
2022-10-11T19:51:23.474Z,11.70
2022-10-11T19:53:57.964Z,11.90
2022-10-11T19:56:26.574Z,12.80
2022-10-11T19:58:54.589Z,13.60
2022-10-11T20:01:23.215Z,13.60
2022-10-11T20:03:51.991Z,16.00
2022-10-11T20:06:20.521Z,12.20
2022-10-11T20:08:59.866Z,13.20
2022-10-11T20:11:36.918Z,10.70
2022-10-11T20:14:04.651Z,10.80
2022-10-11T20:16:32.529Z,20.30
2022-10-11T20:19:00.345Z,23.60
2022-10-11T20:21:29.638Z,20.40
2022-10-11T20:24:02.673Z,12.40
2022-10-11T20:26:31.094Z,14.40
2022-10-11T20:28:58.752Z,15.80
2022-10-11T20:31:31.473Z,12.40
2022-10-11T20:34:01.763Z,15.10
2022-10-11T20:36:30.240Z,14.30
2022-10-11T20:38:58.966Z,12.20
2022-10-11T20:41:33.603Z,12.60
2022-10-11T20:44:02.075Z,12.00
2022-10-11T20:46:31.631Z,10.50
2022-10-11T20:49:02.133Z,11.90
2022-10-11T20:51:30.792Z,12.50
2022-10-11T20:53:58.727Z,10.20
2022-10-11T20:56:26.797Z,10.00
2022-10-11T20:58:55.265Z,11.40
2022-10-11T21:01:24.169Z,11.50
2022-10-11T21:03:52.289Z,12.00
2022-10-11T21:06:19.910Z,11.30
2022-10-11T21:08:47.468Z,11.00
2022-10-11T21:11:15.040Z,10.50
2022-10-11T21:13:42.997Z,10.80
2022-10-11T21:16:14.651Z,12.30
2022-10-11T21:18:42.422Z,12.90
2022-10-11T21:21:11.208Z,12.00
2022-10-11T21:23:39.193Z,11.80
2022-10-11T21:26:08.067Z,12.30
2022-10-11T21:28:35.652Z,12.20
2022-10-11T21:31:04.043Z,14.40
2022-10-11T21:33:31.640Z,14.60
2022-10-11T21:35:59.256Z,13.00
2022-10-11T21:38:26.797Z,11.40
2022-10-11T21:40:54.546Z,11.70
2022-10-11T21:43:22.364Z,11.90
2022-10-11T21:45:50.292Z,10.20
2022-10-11T21:48:17.939Z,10.60
2022-10-11T21:50:51.575Z,18.90
2022-10-11T21:53:19.173Z,24.10
2022-10-11T21:55:47.251Z,20.90
2022-10-11T21:58:14.805Z,15.20
2022-10-11T22:00:42.381Z,14.30
2022-10-11T22:03:09.930Z,21.90
2022-10-11T22:05:42.751Z,22.20
2022-10-11T22:08:10.486Z,20.90
2022-10-11T22:10:38.360Z,15.10
2022-10-11T22:13:05.904Z,12.60
2022-10-11T22:15:34.659Z,16.10
2022-10-11T22:18:02.357Z,16.10
2022-10-11T22:20:32.222Z,19.20
2022-10-11T22:22:59.790Z,21.80
2022-10-11T22:25:27.323Z,21.90
2022-10-11T22:27:54.846Z,21.60
2022-10-11T22:30:22.411Z,20.30
2022-10-11T22:32:50.831Z,20.70
2022-10-11T22:35:18.839Z,18.50
2022-10-11T22:37:46.435Z,34.90
2022-10-11T22:40:14.011Z,83.90
2022-10-11T22:42:41.598Z,87.30
2022-10-11T22:45:09.598Z,61.00
2022-10-11T22:47:37.376Z,41.60
2022-10-11T22:50:05.329Z,33.70
2022-10-11T22:52:32.882Z,29.60
2022-10-11T22:55:00.983Z,27.30
2022-10-11T22:57:28.542Z,27.20
2022-10-11T22:59:56.074Z,26.50
2022-10-11T23:02:23.574Z,22.30
2022-10-11T23:04:53.858Z,24.10
2022-10-11T23:07:21.373Z,22.30
2022-10-11T23:09:49.017Z,20.10
2022-10-11T23:12:16.569Z,21.50
2022-10-11T23:14:44.092Z,17.60
2022-10-11T23:17:11.664Z,16.30
2022-10-11T23:19:39.217Z,14.30
2022-10-11T23:22:06.787Z,12.70
2022-10-11T23:24:34.341Z,10.90
2022-10-11T23:27:01.904Z,10.90
2022-10-11T23:29:30.109Z,10.40
2022-10-11T23:31:57.936Z,8.80
2022-10-11T23:34:25.552Z,8.80
2022-10-11T23:36:53.120Z,9.30
2022-10-11T23:39:20.739Z,8.80
2022-10-11T23:41:48.334Z,8.50
2022-10-11T23:44:15.943Z,8.30
2022-10-11T23:46:43.529Z,9.00
2022-10-11T23:49:11.073Z,8.90
2022-10-11T23:51:38.768Z,9.20
2022-10-11T23:54:06.614Z,9.80
2022-10-11T23:56:34.211Z,9.40
2022-10-11T23:59:01.732Z,8.80
